Flight Track Log - Related Links

Times and Time Zones

All times are in EDT time to prevent confusion due to time zone crossing. See the UAL1423 flight status page for this flight to view local times or setup timezone preferences in your user account.

Time Position Orientation Groundspeed Altitude Reporting Facility
EDT Latitude Longitude Course Direction KTS MPH feet Rate Location/Type
Fri 09:11:00 AM 12.4494 -86.2831 340° North  Level FlightAware Approximate
Fri 09:12:00 AM 12.5520 -86.3215 340° North  Level FlightAware Approximate
Fri 09:13:00 AM 12.6547 -86.3599 340° North  Level FlightAware Approximate
Fri 09:14:00 AM 12.7573 -86.3984 340° North  Level FlightAware Approximate
Fri 09:15:00 AM 12.8599 -86.4368 340° North  Level FlightAware Approximate
Fri 09:16:00 AM 12.9625 -86.4753 340° North  Level FlightAware Approximate
Fri 09:17:00 AM 13.0651 -86.5139 340° North  Level FlightAware Approximate
Fri 09:18:00 AM 13.1677 -86.5525 340° North  Level FlightAware Approximate
Fri 09:19:00 AM 13.2703 -86.5911 340° North  Level FlightAware Approximate
Fri 09:20:00 AM 13.3729 -86.6297 340° North  Level FlightAware Approximate
Fri 09:21:00 AM 13.4754 -86.6684 340° North  Level FlightAware Approximate
Fri 09:22:00 AM 13.5780 -86.7071 340° North  Level FlightAware Approximate
Fri 09:23:00 AM 13.6806 -86.7458 340° North  Level FlightAware Approximate
Fri 09:24:00 AM 13.7831 -86.7846 340° North  Level FlightAware Approximate
Fri 09:25:00 AM 13.8857 -86.8234 340° North  Level FlightAware Approximate
Fri 09:26:00 AM 13.9882 -86.8622 340° North  Level FlightAware Approximate
Fri 09:27:00 AM 14.0924 -86.9019 340° North  Level FlightAware Approximate
Fri 09:28:00 AM 14.1948 -86.9410 340° North  Level FlightAware Approximate
Fri 09:29:00 AM 14.2973 -86.9801 340° North  Level FlightAware Approximate
Fri 09:30:00 AM 14.3997 -87.0193 340° North  Level FlightAware Approximate
Fri 09:31:00 AM 14.5022 -87.0585 340° North  Level FlightAware Approximate
Fri 09:32:00 AM 14.6046 -87.0977 340° North  Level FlightAware Approximate
Fri 09:33:00 AM 14.7071 -87.1370 340° North  Level FlightAware Approximate
Fri 09:34:00 AM 14.8095 -87.1763 340° North  Level FlightAware Approximate
Fri 09:35:00 AM 14.9119 -87.2157 340° North  Level FlightAware Approximate
Fri 09:36:00 AM 15.0143 -87.2551 340° North  Level FlightAware Approximate
Fri 09:37:00 AM 15.1167 -87.2945 340° North  Level FlightAware Approximate
Fri 09:38:00 AM 15.2191 -87.3340 340° North  Level FlightAware Approximate
Fri 09:39:00 AM 15.3215 -87.3735 340° North  Level FlightAware Approximate
Fri 09:40:00 AM 15.4298 -87.4153 340° North  Level FlightAware Approximate
Fri 09:41:00 AM 15.5378 -87.4577 339° North  Level FlightAware Approximate
Fri 09:42:00 AM 15.6458 -87.5001 339° North  Level FlightAware Approximate
Fri 09:43:00 AM 15.7538 -87.5426 339° North  Level FlightAware Approximate
Fri 09:44:00 AM 15.8618 -87.5852 339° North  Level FlightAware Approximate
Fri 09:45:00 AM 15.9698 -87.6277 339° North  Level FlightAware Approximate
Fri 09:46:00 AM 16.0778 -87.6704 339° North  Level FlightAware Approximate
Fri 09:47:00 AM 16.1857 -87.7131 339° North  Level FlightAware Approximate
Fri 09:48:00 AM 16.2937 -87.7558 339° North  Level FlightAware Approximate
Fri 09:49:00 AM 16.4017 -87.7986 339° North  Level FlightAware Approximate
Fri 09:50:00 AM 16.5096 -87.8414 339° North  Level FlightAware Approximate
Fri 09:51:00 AM 16.6176 -87.8843 339° North  Level FlightAware Approximate
Fri 09:52:00 AM 16.7255 -87.9272 339° North  Level FlightAware Approximate
Fri 09:53:00 AM 16.8334 -87.9702 339° North  Level FlightAware Approximate
Fri 09:54:00 AM 16.9413 -88.0132 339° North  Level FlightAware Approximate
Fri 09:55:00 AM 17.0492 -88.0562 339° North  Level FlightAware Approximate
Fri 09:56:00 AM 17.1571 -88.0993 339° North  Level FlightAware Approximate
Fri 09:57:00 AM 17.2650 -88.1425 339° North  Level FlightAware Approximate
Fri 09:58:00 AM 17.3729 -88.1857 339° North  Level FlightAware Approximate
Fri 09:59:00 AM 17.4808 -88.2290 339° North  Level FlightAware Approximate
Fri 10:00:00 AM 17.5886 -88.2723 339° North  Level FlightAware Approximate
Fri 10:00:18 AM 17.6560 -88.3680 339° North 445 512 36,000  Level FlightAware ADS-B
Fri 10:01:00 AM 17.6965 -88.3157 339° North  Level FlightAware Approximate
Fri 10:01:03 AM 17.7290 -88.3960 340° North 445 512 36,000  Level FlightAware ADS-B
Fri 10:01:37 AM 17.7850 -88.4180 339° North 445 512 36,000  Level FlightAware ADS-B
Fri 10:02:18 AM 17.8890 -88.4560 341° North 447 514 36,000  Level FlightAware ADS-B
Fri 10:03:08 AM 17.9760 -88.4890 340° North 447 514 36,000  Level FlightAware ADS-B
Fri 10:04:06 AM 18.1020 -88.5370 340° North 449 517 36,000  Level FlightAware ADS-B
Fri 10:04:48 AM 18.1600 -88.5580 341° North 449 517 36,000  Level FlightAware ADS-B
Fri 10:05:32 AM 18.2330 -88.5860 340° North 449 517 36,000  Level FlightAware ADS-B
Fri 10:06:00 AM 18.3270 -88.6220 340° North 450 518 36,000  Level FlightAware ADS-B
Fri 10:06:40 AM 18.4040 -88.6510 340° North 452 520 36,000  Level FlightAware ADS-B
Fri 10:07:22 AM 18.4870 -88.6830 340° North 450 518 36,000  Level FlightAware ADS-B
Fri 10:07:58 AM 18.5560 -88.7100 340° North 450 518 36,000  Level FlightAware ADS-B
Fri 10:08:40 AM 18.6220 -88.7360 340° North 450 518 36,000  Level FlightAware ADS-B
Fri 10:09:37 AM 18.7410 -88.7830 339° North 449 517 36,000  Level FlightAware ADS-B
Fri 10:10:18 AM 18.8310 -88.8180 340° North 448 516 36,000  Level FlightAware ADS-B
Fri 10:10:58 AM 18.9080 -88.8480 340° North 447 514 36,000  Level FlightAware ADS-B
Fri 10:11:42 AM 18.9940 -88.8820 340° North 445 512 36,000  Level FlightAware ADS-B
Fri 10:12:22 AM 19.0730 -88.9130 340° North 444 511 36,000  Level FlightAware ADS-B
Fri 10:13:04 AM 19.1290 -88.9350 340° North 444 511 36,000  Level FlightAware ADS-B
Fri 10:14:02 AM 19.2400 -88.9790 339° North 443 510 36,000  Level FlightAware ADS-B
Fri 10:14:44 AM 19.3360 -89.0170 340° North 441 507 36,000  Level FlightAware ADS-B
Fri 10:15:27 AM 19.4270 -89.0530 340° North 440 506 36,000  Level FlightAware ADS-B
Fri 10:16:09 AM 19.5070 -89.0840 340° North 439 505 36,000  Level FlightAware ADS-B
Fri 10:16:42 AM 19.5580 -89.1050 339° North 438 504 36,000  Level FlightAware ADS-B
Fri 10:17:24 AM 19.6260 -89.1310 340° North 438 504 36,000  Level FlightAware ADS-B
Fri 10:18:11 AM 19.7400 -89.1760 340° North 437 503 36,000  Level FlightAware ADS-B
Fri 10:18:43 AM 19.8020 -89.2010 339° North 437 503 36,000  Level FlightAware ADS-B
Fri 10:19:19 AM 19.8700 -89.2280 340° North 437 503 36,000  Level FlightAware ADS-B
Fri 10:20:09 AM 19.9630 -89.2650 339° North 439 505 36,000  Level FlightAware ADS-B
Fri 10:20:44 AM 20.0060 -89.2830 339° North 440 506 36,000  Level FlightAware ADS-B
Fri 10:21:16 AM 20.0800 -89.3120 340° North 441 507 36,000  Level FlightAware ADS-B
Fri 10:22:01 AM 20.1780 -89.3510 340° North 441 507 36,000  Level FlightAware ADS-B
Fri 10:22:41 AM 20.2550 -89.3820 339° North 442 509 36,000  Level FlightAware ADS-B
Fri 10:23:21 AM 20.3330 -89.4130 340° North 443 510 36,000 231 Level FlightAware ADS-B
Fri 10:23:59 AM 20.4060 -89.4420 340° North 448 516 36,300 538 Climbing FlightAware ADS-B
Fri 10:24:39 AM 20.4680 -89.4670 339° North 449 517 36,700 839 Climbing FlightAware ADS-B
Fri 10:25:32 AM 20.5840 -89.5140 339° North 445 512 37,600 780 Climbing FlightAware ADS-B
Fri 10:26:19 AM 20.6770 -89.5510 340° North 441 507 38,000 264 Climbing FlightAware ADS-B
Fri 10:27:03 AM 20.7620 -89.5850 339° North 440 506 38,000  Level FlightAware ADS-B
Fri 10:27:35 AM 20.8220 -89.6090 340° North 439 505 38,000  Level FlightAware ADS-B
Fri 10:28:19 AM 20.9060 -89.6430 339° North 439 505 38,000  Level FlightAware ADS-B
Fri 10:28:59 AM 20.9810 -89.6760 338° Northwest 437 503 38,000  Level FlightAware ADS-B
Fri 10:29:45 AM 21.0670 -89.7150 337° Northwest 438 504 38,000  Level FlightAware ADS-B
Fri 10:30:25 AM 21.1410 -89.7500 336° Northwest 437 503 38,000  Level FlightAware ADS-B
Fri 10:31:09 AM 21.2230 -89.7870 337° Northwest 437 503 38,000  Level FlightAware ADS-B
Fri 10:31:47 AM 21.2930 -89.8190 337° Northwest 438 504 38,000  Level FlightAware ADS-B
Fri 10:32:29 AM 21.3730 -89.8560 337° Northwest 438 504 38,000  Level FlightAware ADS-B
Fri 10:33:09 AM 21.4460 -89.8900 337° Northwest 440 506 38,000  Level FlightAware ADS-B
Fri 10:33:54 AM 21.5320 -89.9300 337° Northwest 442 509 38,000  Level FlightAware ADS-B
Fri 10:34:37 AM 21.6140 -89.9670 337° Northwest 442 509 38,000  Level FlightAware ADS-B
Fri 10:35:19 AM 21.6910 -90.0030 337° Northwest 443 510 38,000  Level FlightAware ADS-B
Fri 10:35:48 AM 21.7470 -90.0290 337° Northwest 443 510 38,000  Level FlightAware ADS-B
Fri 10:36:29 AM 21.8250 -90.0650 337° Northwest 443 510 38,000  Level FlightAware ADS-B
Fri 10:37:46 AM 21.9460 -90.1220 336° Northwest 443 510 38,000  Level FlightAware ADS-B
Fri 10:38:29 AM 22.0360 -90.1630 337° Northwest 443 510 38,000  Level FlightAware ADS-B
Fri 10:39:07 AM 22.1230 -90.2040 336° Northwest 442 509 38,000  Level FlightAware ADS-B
Fri 10:39:51 AM 22.2060 -90.2430 336° Northwest 443 510 38,000  Level FlightAware ADS-B
Fri 10:40:30 AM 22.2780 -90.2770 336° Northwest 443 510 38,000  Level FlightAware ADS-B
Fri 10:41:25 AM 22.3580 -90.3140 337° Northwest 443 510 38,000  Level FlightAware ADS-B
Fri 10:42:10 AM 22.4660 -90.3650 336° Northwest 442 509 38,000  Level FlightAware ADS-B
Fri 10:42:54 AM 22.5500 -90.4040 337° Northwest 441 507 38,000  Level FlightAware ADS-B
Fri 10:43:34 AM 22.6240 -90.4390 336° Northwest 441 507 38,000  Level FlightAware ADS-B
Fri 10:44:20 AM 22.7100 -90.4790 337° Northwest 441 507 38,000  Level FlightAware ADS-B
Fri 10:45:00 AM 22.7860 -90.5150 336° Northwest 440 506 38,000  Level FlightAware ADS-B
Fri 10:45:36 AM 22.8540 -90.5470 337° Northwest 439 505 38,000  Level FlightAware ADS-B
Fri 10:46:21 AM 22.9240 -90.5800 337° Northwest 438 504 38,000  Level FlightAware ADS-B
Fri 10:46:59 AM 22.9830 -90.6080 336° Northwest 437 503 38,000  Level FlightAware ADS-B
Fri 10:47:41 AM 23.0800 -90.6540 336° Northwest 437 503 38,000  Level FlightAware ADS-B
Fri 10:48:33 AM 23.1750 -90.6990 336° Northwest 437 503 38,000  Level FlightAware ADS-B
Fri 10:49:12 AM 23.2360 -90.7290 336° Northwest 437 503 38,000  Level FlightAware ADS-B
Fri 10:49:54 AM 23.3330 -90.7740 337° Northwest 438 504 38,000  Level FlightAware ADS-B
Fri 10:50:18 AM 23.3730 -90.7930 336° Northwest 440 506 38,000  Level FlightAware ADS-B
Fri 10:51:07 AM 23.4500 -90.8310 336° Northwest 440 506 38,000  Level FlightAware ADS-B
Fri 10:51:43 AM 23.5070 -90.8580 337° Northwest 440 506 38,000  Level FlightAware ADS-B
Fri 10:52:21 AM 23.5670 -90.8870 336° Northwest 440 506 38,000  Level FlightAware ADS-B
Fri 10:53:07 AM 23.6400 -90.9230 336° Northwest 440 506 38,000  Level FlightAware ADS-B
Fri 10:54:09 AM 23.7380 -90.9700 336° Northwest 440 506 38,000  Level FlightAware ADS-B
Fri 10:54:45 AM 23.7950 -90.9980 336° Northwest 440 506 38,000  Level FlightAware ADS-B
Fri 10:55:46 AM 23.8910 -91.0450 336° Northwest 440 506 38,000  Level FlightAware ADS-B
Fri 10:56:24 AM 23.9510 -91.0740 336° Northwest 440 506 38,000  Level FlightAware ADS-B
Fri 10:57:02 AM 24.0110 -91.1040 335° Northwest 440 506 38,000  Level FlightAware ADS-B
Fri 10:57:53 AM 24.0920 -91.1430 336° Northwest 440 506 38,000  Level FlightAware ADS-B
Fri 10:58:28 AM 24.1470 -91.1700 336° Northwest 440 506 38,000  Level FlightAware ADS-B
Fri 10:59:14 AM 24.2200 -91.2050 336° Northwest 440 506 38,000  Level FlightAware ADS-B
Fri 10:59:52 AM 24.2800 -91.2350 335° Northwest 440 506 38,000  Level FlightAware ADS-B
Fri 11:02:00 AM 24.5076 -91.3382 330° Northwest  Level FlightAware Approximate
Fri 11:03:00 AM 24.6076 -91.4017 330° Northwest  Level FlightAware Approximate
Fri 11:04:00 AM 24.7076 -91.4654 330° Northwest  Level FlightAware Approximate
Fri 11:05:00 AM 24.8055 -91.5313 329° Northwest  Level FlightAware Approximate
Fri 11:06:00 AM 24.9041 -91.5959 330° Northwest  Level FlightAware Approximate
Fri 11:07:00 AM 25.0030 -91.6601 330° Northwest  Level FlightAware Approximate
Fri 11:08:00 AM 25.1018 -91.7244 329° Northwest  Level FlightAware Approximate
Fri 11:09:00 AM 25.2007 -91.7887 330° Northwest  Level FlightAware Approximate
Fri 11:10:00 AM 25.2997 -91.8530 330° Northwest  Level FlightAware Approximate
Fri 11:11:00 AM 25.3986 -91.9173 330° Northwest  Level FlightAware Approximate
Fri 11:12:00 AM 25.4975 -91.9817 330° Northwest  Level FlightAware Approximate
Fri 11:13:00 AM 25.5965 -92.0459 330° Northwest  Level FlightAware Approximate
Fri 11:14:00 AM 25.6955 -92.1103 330° Northwest  Level FlightAware Approximate
Fri 11:15:00 AM 25.7945 -92.1747 330° Northwest  Level FlightAware Approximate
Fri 11:16:00 AM 25.8936 -92.2391 330° Northwest  Level FlightAware Approximate
Fri 11:17:00 AM 25.9926 -92.3035 330° Northwest  Level FlightAware Approximate
Fri 11:18:00 AM 26.0916 -92.3680 330° Northwest  Level FlightAware Approximate
Fri 11:19:00 AM 26.1906 -92.4326 330° Northwest  Level FlightAware Approximate
Fri 11:19:16 AM 26.4687 -92.5986 330° Northwest 436 502 38,000  Level FlightAware ADS-B
Fri 11:21:00 AM 26.6368 -92.7175 328° Northwest  Level FlightAware Approximate
Fri 11:22:00 AM 26.7338 -92.7863 328° Northwest  Level FlightAware Approximate
Fri 11:22:29 AM 26.8214 -92.7703 328° Northwest 432 497 38,000  Level FlightAware ADS-B
Fri 11:23:44 AM 26.9626 -92.8278 340° North 431 496 38,000  Level FlightAware ADS-B
Fri 11:24:16 AM 27.0238 -92.8527 340° North 431 496 38,000  Level FlightAware ADS-B
Fri 11:25:02 AM 27.1094 -92.8875 340° North 431 496 38,000  Level FlightAware ADS-B
Fri 11:25:35 AM 27.1710 -92.9126 340° North 430 495 38,000  Level FlightAware ADS-B
Fri 11:26:05 AM 27.2279 -92.9358 340° North 430 495 38,000  Level FlightAware ADS-B
Fri 11:26:37 AM 27.2877 -92.9601 340° North 430 495 38,000  Level FlightAware ADS-B
Fri 11:27:07 AM 27.3440 -92.9833 340° North 430 495 38,000  Level FlightAware ADS-B
Fri 11:30:43 AM 27.7419 -93.1468 340° North 416 479 38,000  Level FlightAware ADS-B
Fri 11:31:19 AM 27.8080 -93.1742 340° North 414 476 38,000  Level FlightAware ADS-B
Fri 11:32:01 AM 27.8825 -93.2050 340° North 410 472 38,000  Level FlightAware ADS-B
Fri 11:32:31 AM 27.9359 -93.2272 340° North 409 471 38,000 -538 Level FlightAware ADS-B
Fri 11:33:19 AM 28.0215 -93.2627 340° North 408 470 37,300 -938 Descending FlightAware ADS-B
Fri 11:34:39 AM 28.1656 -93.3227 340° North 410 472 36,000 -696 Descending FlightAware ADS-B
Fri 11:35:11 AM 28.2223 -93.3462 340° North 417 480 36,000  Level FlightAware ADS-B
Fri 11:35:44 AM 28.2819 -93.3710 340° North 417 480 36,000  Level FlightAware ADS-B
Fri 11:35:53 AM 28.2986 -93.3769 343° North 417 480 36,000  Level FlightAware ADS-B
Fri 11:36:21 AM 28.3529 -93.3840 353° North 418 481 36,000 -377 Level FlightAware ADS-B
Fri 11:41:43 AM 28.9327 -93.4511 354° North 422 486 33,800 -563 Descending FlightAware ADS-B
Fri 11:42:13 AM 28.9830 -93.4886 327° Northwest 424 488 32,700 -2,557 Descending FlightAware ADS-B
Fri 11:42:44 AM 29.0327 -93.5259 327° Northwest 426 490 31,200 -2,516 Descending FlightAware ADS-B
Fri 11:43:15 AM 29.0832 -93.5641 327° Northwest 420 483 30,100 -2,164 Descending FlightAware ADS-B
Fri 11:43:45 AM 29.1322 -93.6011 327° Northwest 415 478 29,000 -2,262 Descending FlightAware ADS-B
Fri 11:44:16 AM 29.1819 -93.6386 327° Northwest 409 471 27,800 -2,164 Descending FlightAware ADS-B
Fri 11:44:46 AM 29.2292 -93.6742 327° Northwest 403 464 26,800 -2,066 Descending FlightAware ADS-B
Fri 11:45:17 AM 29.2756 -93.7094 327° Northwest 398 458 25,700 -2,164 Descending FlightAware ADS-B
Fri 11:45:47 AM 29.3226 -93.7452 326° Northwest 392 451 24,600 -2,066 Descending FlightAware ADS-B
Fri 11:46:18 AM 29.3689 -93.7801 327° Northwest 388 447 23,600 -2,000 Descending FlightAware ADS-B
Fri 11:46:50 AM 29.4163 -93.8159 327° Northwest 383 441 22,500 -2,032 Descending FlightAware ADS-B
Fri 11:47:20 AM 29.4604 -93.8496 326° Northwest 379 436 21,500 -1,915 Descending FlightAware ADS-B
Fri 11:47:37 AM 29.4855 -93.8689 326° Northwest 376 433 21,000 -1,826 Descending FlightAware ADS-B
Fri 11:47:43 AM 29.4933 -93.8762 321° Northwest 376 433 20,800 -2,143 Descending FlightAware ADS-B
Fri 11:47:51 AM 29.5025 -93.8878 312° West 377 434 20,500 -1,875 Descending FlightAware ADS-B
Fri 11:47:59 AM 29.5097 -93.9006 303° West 377 434 20,300 -1,714 Descending FlightAware ADS-B
Fri 11:48:05 AM 29.5141 -93.9119 294° West 377 434 20,100 -2,143 Descending FlightAware ADS-B
Fri 11:48:13 AM 29.5178 -93.9276 285° West 376 433 19,800 -1,846 Descending FlightAware ADS-B
Fri 11:48:18 AM 29.5189 -93.9367 278° West 375 432 19,700 -1,833 Descending FlightAware ADS-B
Fri 11:48:49 AM 29.5212 -93.9989 272° West 370 426 18,700 -1,869 Descending FlightAware ADS-B
Fri 11:49:19 AM 29.5234 -94.0572 272° West 364 419 17,800 -1,935 Descending FlightAware ADS-B
Fri 11:49:51 AM 29.5257 -94.1183 272° West 361 415 16,700 -2,032 Descending FlightAware ADS-B
Fri 11:50:21 AM 29.5278 -94.1755 272° West 358 412 15,700 -1,967 Descending FlightAware ADS-B
Fri 11:50:52 AM 29.5298 -94.2332 272° West 355 409 14,700 -2,361 Descending FlightAware ADS-B
Fri 11:51:22 AM 29.5316 -94.2910 272° West 361 415 13,300 -2,375 Descending FlightAware ADS-B
Fri 11:51:40 AM 29.5331 -94.3242 273° West 350 403 12,800 -968 Descending FlightAware ADS-B
Fri 11:51:53 AM 29.5370 -94.3472 281° West 333 383 12,800 -261 Level FlightAware ADS-B
Fri 11:52:03 AM 29.5428 -94.3645 291° West 325 374 12,700 -800 Descending FlightAware ADS-B
Fri 11:52:08 AM 29.5458 -94.3713 297° West 324 373 12,600 -1,286 Descending FlightAware ADS-B
Fri 11:52:17 AM 29.5536 -94.3851 303° West 322 371 12,400 -1,286 Descending FlightAware ADS-B
Fri 11:52:22 AM 29.5579 -94.3911 309° West 318 366 12,300 -667 Descending FlightAware ADS-B
Fri 11:52:26 AM 29.5622 -94.3961 315° West 315 362 12,300 -947 Level FlightAware ADS-B
Fri 11:52:41 AM 29.5786 -94.4127 319° Northwest 307 353 12,000 -1,143 Descending FlightAware ADS-B
Fri 11:52:47 AM 29.5854 -94.4189 322° Northwest 305 351 11,900 -1,200 Descending FlightAware ADS-B
Fri 11:52:51 AM 29.5899 -94.4227 324° Northwest 303 349 11,800 -1,091 Descending FlightAware ADS-B
Fri 11:52:58 AM 29.5974 -94.4277 330° Northwest 300 345 11,700 -1,000 Descending FlightAware ADS-B
Fri 11:53:03 AM 29.6042 -94.4313 335° Northwest 297 342 11,600 -1,200 Descending FlightAware ADS-B
Fri 11:53:08 AM 29.6110 -94.4341 340° North 295 339 11,500 -1,500 Descending FlightAware ADS-B
Fri 11:53:15 AM 29.6199 -94.4366 346° North 295 339 11,300 -1,784 Descending FlightAware ADS-B
Fri 11:53:45 AM 29.6608 -94.4432 352° North 299 344 10,400 -1,660 Descending FlightAware ADS-B
Fri 11:54:02 AM 29.6836 -94.4466 353° North 297 342 10,000 -1,500 Descending FlightAware ADS-B
Fri 11:54:17 AM 29.7047 -94.4497 353° North 294 338 9,600 -1,385 Descending FlightAware ADS-B
Fri 11:54:28 AM 29.7191 -94.4518 353° North 292 336 9,400 -1,565 Descending FlightAware ADS-B
Fri 11:54:40 AM 29.7349 -94.4545 350° North 292 336 9,000 -2,000 Descending FlightAware ADS-B
Fri 11:54:43 AM 29.7394 -94.4559 345° North 293 337 8,900 -1,500 Descending FlightAware ADS-B
Fri 11:54:48 AM 29.7448 -94.4586 337° Northwest 294 338 8,800 -1,500 Descending FlightAware ADS-B
Fri 11:54:51 AM 29.7490 -94.4615 329° Northwest 294 338 8,700 -1,714 Descending FlightAware ADS-B
Fri 11:54:55 AM 29.7529 -94.4650 322° Northwest 294 338 8,600 -1,714 Descending FlightAware ADS-B
Fri 11:54:58 AM 29.7562 -94.4687 316° Northwest 295 339 8,500 -2,000 Descending FlightAware ADS-B
Fri 11:55:01 AM 29.7591 -94.4725 311° West 296 341 8,400 -1,714 Descending FlightAware ADS-B
Fri 11:55:05 AM 29.7620 -94.4772 305° West 295 339 8,300 -1,385 Descending FlightAware ADS-B
Fri 11:55:14 AM 29.7685 -94.4892 302° West 295 339 8,100 -1,600 Descending FlightAware ADS-B
Fri 11:55:20 AM 29.7730 -94.4976 302° West 295 339 7,900 -1,714 Descending FlightAware ADS-B
Fri 11:55:35 AM 29.7832 -94.5180 300° West 295 339 7,500 -1,600 Descending FlightAware ADS-B
Fri 11:55:50 AM 29.7930 -94.5381 299° West 294 338 7,100 -1,500 Descending FlightAware ADS-B
Fri 11:55:55 AM 29.7967 -94.5448 302° West 292 336 7,000 -1,125 Descending FlightAware ADS-B
Fri 11:56:06 AM 29.8054 -94.5584 306° West 289 333 6,800 -1,154 Descending FlightAware ADS-B
Fri 11:56:21 AM 29.8176 -94.5764 308° West 283 326 6,500 -1,200 Descending FlightAware ADS-B
Fri 11:56:31 AM 29.8257 -94.5878 309° West 282 325 6,300 -1,680 Descending FlightAware ADS-B
Fri 11:56:46 AM 29.8385 -94.6050 311° West 280 322 5,800 -1,800 Descending FlightAware ADS-B
Fri 11:57:01 AM 29.8514 -94.6219 311° West 277 319 5,400 -1,600 Descending FlightAware ADS-B
Fri 11:57:16 AM 29.8643 -94.6387 312° West 275 316 5,000 -1,696 Descending FlightAware ADS-B
Fri 11:57:47 AM 29.8902 -94.6718 312° West 274 315 4,100 -1,667 Descending FlightAware ADS-B
Fri 11:57:52 AM 29.8941 -94.6776 308° West 274 315 4,000 -522 Descending FlightAware ADS-B
Fri 11:58:10 AM 29.9048 -94.7006 296° West 271 312 3,900 -261 Descending FlightAware ADS-B
Fri 11:58:15 AM 29.9072 -94.7074 292° West 270 311 3,900  Level FlightAware ADS-B
Fri 11:58:30 AM 29.9138 -94.7277 291° West 267 307 3,900  Level FlightAware ADS-B
Fri 11:58:44 AM 29.9199 -94.7459 291° West 266 306 3,900 -621 Level FlightAware ADS-B
Fri 11:58:59 AM 29.9268 -94.7658 292° West 269 310 3,600 -1,371 Descending FlightAware ADS-B
Fri 11:59:19 AM 29.9356 -94.7922 291° West 269 310 3,100 -875 Descending FlightAware ADS-B
Fri 11:59:47 AM 29.9518 -94.8272 298° West 268 308 2,900 -261 Descending FlightAware ADS-B
Fri 12:00:05 PM 29.9626 -94.8486 300° West 246 283 2,900  Level FlightAware ADS-B
Fri 12:00:14 PM 29.9679 -94.8588 301° West 238 274 2,900  Level FlightAware ADS-B
Fri 12:00:23 PM 29.9724 -94.8682 299° West 233 268 2,900  Level FlightAware ADS-B
Fri 12:00:26 PM 29.9738 -94.8725 291° West 231 266 2,900  Level FlightAware ADS-B
Fri 12:00:32 PM 29.9751 -94.8786 284° West 228 262 2,900  Level FlightAware ADS-B
Fri 12:00:45 PM 29.9765 -94.8938 275° West 214 246 2,900  Level FlightAware ADS-B
Fri 12:01:07 PM 29.9776 -94.9176 272° West 188 216 2,900  Level FlightAware ADS-B
Fri 12:01:24 PM 29.9775 -94.9339 270° West 184 212 2,900 -160 Level FlightAware ADS-B
Fri 12:02:22 PM 29.9773 -94.9900 270° West 177 204 2,700 -417 Descending FlightAware ADS-B
Fri 12:02:36 PM 29.9774 -95.0029 272° West 181 208 2,400 -1,333 Descending FlightAware ADS-B
Fri 12:02:58 PM 29.9774 -95.0234 270° West 171 197 1,900 -652 Descending FlightAware ADS-B
Fri 12:03:22 PM 29.9775 -95.0451 271° West 165 190 1,900  Level FlightAware ADS-B
Fri 12:03:33 PM 29.9775 -95.0547 270° West 167 192 1,900  Level FlightAware ADS-B
Fri 12:03:40 PM 29.9775 -95.0609 270° West 167 192 1,900  Level FlightAware ADS-B
Fri 12:04:04 PM 29.9775 -95.0823 271° West 168 193 1,900  Level FlightAware ADS-B
Fri 12:04:17 PM 29.9775 -95.0939 270° West 167 192 1,900  Level FlightAware ADS-B
Fri 12:04:44 PM 29.9776 -95.1179 270° West 167 192 1,900  Level FlightAware ADS-B
Fri 12:05:00 PM 29.9776 -95.1324 270° West 169 194 1,900  Level FlightAware ADS-B
Fri 12:05:16 PM 29.9775 -95.1469 270° West 168 193 1,900  Level FlightAware ADS-B
Fri 12:05:27 PM 29.9775 -95.1567 270° West 166 191 1,900  Level FlightAware ADS-B
Fri 12:05:43 PM 29.9776 -95.1710 270° West 167 192 1,900  Level FlightAware ADS-B
Fri 12:05:51 PM 29.9775 -95.1782 269° West 162 186 1,900 -261 Level FlightAware ADS-B
Fri 12:06:06 PM 29.9775 -95.1911 270° West 161 185 1,800 -692 Descending FlightAware ADS-B
Fri 12:06:43 PM 29.9775 -95.2217 270° West 152 175 1,300 -778 Descending FlightAware ADS-B
Fri 12:07:00 PM 29.9776 -95.2349 271° West 148 170 1,100 -720 Descending FlightAware ADS-B
Fri 12:07:08 PM 29.9775 -95.2412 269° West 148 170 1,000 -1,000 Descending FlightAware ADS-B
Fri 12:07:18 PM 29.9775 -95.2492 270° West 148 170 800 -667 Descending FlightAware ADS-B
Fri 12:07:26 PM 29.9776 -95.2554 271° West 147 169 800 -600 Level FlightAware ADS-B
Fri 12:07:38 PM 29.9776 -95.2648 270° West 147 169 600 -1,000 Descending FlightAware ADS-B
Fri 12:07:44 PM 29.9776 -95.2695 270° West 147 169 500 -800 Descending FlightAware ADS-B
Fri 12:07:53 PM 29.9776 -95.2763 270° West 147 169 400 -667 Descending FlightAware ADS-B
Fri 12:08:02 PM 29.9776 -95.2833 270° West 147 169 300 -692 Descending FlightAware ADS-B
Fri 12:08:19 PM 29.9776 -95.2966 270° West 147 169 100 -706 Descending FlightAware ADS-B

Login

Don't have an account? Register now (free) for customized features, flight alerts, and more!